Time,TemperatureF,DewpointF,PressureIn,WindDirection,WindDirectionDegrees,WindSpeedMPH,WindSpeedGustMPH,Humidity,HourlyPrecipIn,Conditions,Clouds,dailyrainin,SoftwareType,DateUTC
2013-04-25 00:03:00,63.0,52.0,29.75,SSE,167,8.0,18.0,68,0.00,,,0.00,,2013-04-25 04:03:00,
2013-04-25 00:13:00,63.0,52.0,29.75,SSE,167,8.0,18.0,68,0.00,,,0.00,,2013-04-25 04:13:00,
2013-04-25 00:23:00,57.0,51.0,29.84,NW,307,6.0,19.0,79,0.05,,,0.05,,2013-04-25 04:23:00,
2013-04-25 00:33:00,55.0,50.0,29.84,NW,313,8.0,17.0,83,0.06,,,0.06,,2013-04-25 04:33:00,
2013-04-25 00:43:00,55.0,50.0,29.84,NW,313,8.0,17.0,83,0.06,,,0.06,,2013-04-25 04:43:00,
2013-04-25 00:52:00,53.0,48.0,29.87,West,259,6.0,18.0,84,0.07,,,0.07,,2013-04-25 04:52:00,
2013-04-25 01:02:00,52.0,46.0,29.88,West,275,7.0,17.0,81,0.07,,,0.07,,2013-04-25 05:02:00,
2013-04-25 01:12:00,52.0,46.0,29.88,West,275,7.0,17.0,81,0.07,,,0.07,,2013-04-25 05:12:00,
2013-04-25 01:22:00,51.0,45.0,29.90,West,267,8.0,23.0,79,0.02,,,0.07,,2013-04-25 05:22:00,
2013-04-25 01:32:00,50.0,44.0,29.92,West,259,7.0,22.0,80,0.01,,,0.07,,2013-04-25 05:32:00,
2013-04-25 01:42:00,50.0,44.0,29.92,West,259,7.0,22.0,80,0.01,,,0.07,,2013-04-25 05:42:00,
2013-04-25 01:52:00,49.0,42.0,29.95,WSW,244,10.0,30.0,76,0.00,,,0.07,,2013-04-25 05:52:00,
2013-04-25 02:02:00,49.0,41.0,29.96,WSW,238,7.0,19.0,75,0.00,,,0.07,,2013-04-25 06:02:00,
2013-04-25 02:12:00,49.0,41.0,29.96,WSW,238,7.0,19.0,75,0.00,,,0.07,,2013-04-25 06:12:00,
2013-04-25 02:22:00,48.0,40.0,29.97,WSW,239,9.0,21.0,73,0.00,,,0.07,,2013-04-25 06:22:00,
2013-04-25 02:32:00,48.0,40.0,29.98,West,274,5.0,22.0,73,0.00,,,0.07,,2013-04-25 06:32:00,
2013-04-25 02:42:00,48.0,40.0,29.98,West,274,5.0,22.0,73,0.00,,,0.07,,2013-04-25 06:42:00,
2013-04-25 02:52:00,47.0,38.0,30.00,WNW,298,12.0,22.0,72,0.00,,,0.07,,2013-04-25 06:52:00,
2013-04-25 03:02:00,47.0,39.0,30.01,West,271,5.0,18.0,73,0.00,,,0.07,,2013-04-25 07:02:00,
2013-04-25 03:12:00,47.0,39.0,30.01,West,271,5.0,18.0,73,0.00,,,0.07,,2013-04-25 07:12:00,
2013-04-25 03:22:00,46.0,38.0,30.02,WNW,295,8.0,13.0,74,0.00,,,0.07,,2013-04-25 07:22:00,
2013-04-25 03:32:00,46.0,38.0,30.03,WNW,286,9.0,17.0,74,0.00,,,0.07,,2013-04-25 07:32:00,
2013-04-25 03:42:00,46.0,38.0,30.03,WNW,286,9.0,17.0,74,0.00,,,0.07,,2013-04-25 07:42:00,
2013-04-25 03:52:00,45.0,37.0,30.04,WNW,298,8.0,25.0,74,0.00,,,0.07,,2013-04-25 07:52:00,
2013-04-25 04:02:00,45.0,37.0,30.05,WNW,291,5.0,15.0,74,0.00,,,0.07,,2013-04-25 08:02:00,
2013-04-25 04:11:00,45.0,37.0,30.05,WNW,291,5.0,15.0,74,0.00,,,0.07,,2013-04-25 08:11:00,
2013-04-25 04:21:00,44.0,36.0,30.06,West,270,14.0,27.0,72,0.00,,,0.07,,2013-04-25 08:21:00,
2013-04-25 04:32:00,44.0,35.0,30.06,WSW,245,13.0,26.0,71,0.00,,,0.07,,2013-04-25 08:32:00,
2013-04-25 04:42:00,44.0,35.0,30.06,WSW,245,13.0,26.0,71,0.00,,,0.07,,2013-04-25 08:42:00,
2013-04-25 04:52:00,44.0,35.0,30.07,West,269,11.0,22.0,71,0.00,,,0.07,,2013-04-25 08:52:00,
2013-04-25 05:01:00,43.0,35.0,30.07,WNW,298,7.0,17.0,72,0.00,,,0.07,,2013-04-25 09:01:00,
2013-04-25 05:11:00,43.0,35.0,30.07,WNW,298,7.0,17.0,72,0.00,,,0.07,,2013-04-25 09:11:00,
2013-04-25 05:21:00,43.0,35.0,30.09,West,271,7.0,18.0,72,0.00,,,0.07,,2013-04-25 09:21:00,
2013-04-25 05:33:00,42.0,34.0,30.09,West,272,7.0,15.0,72,0.00,,,0.07,,2013-04-25 09:33:00,
2013-04-25 05:42:00,42.0,34.0,30.09,West,272,7.0,15.0,72,0.00,,,0.07,,2013-04-25 09:42:00,
2013-04-25 05:53:00,42.0,34.0,30.11,WNW,291,7.0,16.0,73,0.00,,,0.07,,2013-04-25 09:53:00,
2013-04-25 06:02:00,42.0,34.0,30.11,West,267,6.0,17.0,73,0.00,,,0.07,,2013-04-25 10:02:00,
2013-04-25 06:12:00,42.0,34.0,30.11,West,267,6.0,17.0,73,0.00,,,0.07,,2013-04-25 10:12:00,
2013-04-25 06:22:00,41.0,33.0,30.12,West,265,8.0,18.0,74,0.00,,,0.07,,2013-04-25 10:22:00,
2013-04-25 06:32:00,41.0,33.0,30.14,WSW,249,8.0,18.0,74,0.00,,,0.07,,2013-04-25 10:32:00,
2013-04-25 06:42:00,41.0,33.0,30.14,WSW,249,8.0,18.0,74,0.00,,,0.07,,2013-04-25 10:42:00,
2013-04-25 06:53:00,41.0,33.0,30.14,West,272,10.0,22.0,74,0.00,,,0.07,,2013-04-25 10:53:00,
2013-04-25 07:02:00,41.0,33.0,30.15,WNW,291,11.0,21.0,74,0.00,,,0.07,,2013-04-25 11:02:00,
2013-04-25 07:12:00,41.0,33.0,30.15,WNW,291,11.0,21.0,74,0.00,,,0.07,,2013-04-25 11:12:00,
2013-04-25 07:22:00,42.0,34.0,30.16,West,261,7.0,20.0,74,0.00,,,0.07,,2013-04-25 11:22:00,
2013-04-25 07:32:00,42.0,34.0,30.17,WNW,290,11.0,20.0,73,0.00,,,0.07,,2013-04-25 11:32:00,
2013-04-25 07:42:00,42.0,34.0,30.17,WNW,290,11.0,20.0,73,0.00,,,0.07,,2013-04-25 11:42:00,
2013-04-25 07:52:00,42.0,33.0,30.19,WNW,288,8.0,20.0,70,0.00,,,0.07,,2013-04-25 11:52:00,
2013-04-25 08:01:00,42.0,32.0,30.19,WSW,250,9.0,18.0,68,0.00,,,0.07,,2013-04-25 12:01:00,
2013-04-25 08:12:00,42.0,32.0,30.19,WSW,250,9.0,18.0,68,0.00,,,0.07,,2013-04-25 12:12:00,
2013-04-25 08:21:00,42.0,32.0,30.19,West,273,8.0,25.0,67,0.00,,,0.07,,2013-04-25 12:21:00,
2013-04-25 08:32:00,42.0,32.0,30.19,WNW,283,7.0,21.0,67,0.00,,,0.07,,2013-04-25 12:32:00,
2013-04-25 08:42:00,42.0,32.0,30.19,WNW,283,7.0,21.0,67,0.00,,,0.07,,2013-04-25 12:42:00,
2013-04-25 08:52:00,42.0,32.0,30.20,West,280,6.0,16.0,68,0.00,,,0.07,,2013-04-25 12:52:00,
2013-04-25 09:02:00,42.0,32.0,30.20,WNW,295,10.0,16.0,68,0.00,,,0.07,,2013-04-25 13:02:00,
2013-04-25 09:11:00,42.0,32.0,30.20,WNW,295,10.0,16.0,68,0.00,,,0.07,,2013-04-25 13:11:00,
2013-04-25 09:21:00,42.0,32.0,30.21,WNW,292,8.0,18.0,67,0.00,,,0.07,,2013-04-25 13:21:00,
2013-04-25 09:32:00,42.0,31.0,30.22,NW,309,10.0,19.0,66,0.00,,,0.07,,2013-04-25 13:32:00,
2013-04-25 09:42:00,42.0,31.0,30.22,NW,309,10.0,19.0,66,0.00,,,0.07,,2013-04-25 13:42:00,
2013-04-25 09:53:00,42.0,31.0,30.23,WSW,250,6.0,18.0,66,0.00,,,0.07,,2013-04-25 13:53:00,
2013-04-25 10:02:00,42.0,31.0,30.24,NW,313,8.0,19.0,66,0.00,,,0.07,,2013-04-25 14:02:00,
2013-04-25 10:11:00,42.0,31.0,30.24,NW,313,8.0,19.0,66,0.00,,,0.07,,2013-04-25 14:11:00,
2013-04-25 10:21:00,43.0,32.0,30.24,West,276,6.0,17.0,65,0.00,,,0.07,,2013-04-25 14:21:00,
2013-04-25 10:32:00,43.0,32.0,30.24,WNW,287,7.0,14.0,64,0.00,,,0.07,,2013-04-25 14:32:00,
2013-04-25 10:42:00,43.0,32.0,30.24,WNW,287,7.0,14.0,64,0.00,,,0.07,,2013-04-25 14:42:00,
2013-04-25 10:52:00,43.0,31.0,30.25,WSW,251,8.0,19.0,63,0.00,,,0.07,,2013-04-25 14:52:00,
2013-04-25 11:02:00,44.0,32.0,30.26,WNW,298,9.0,17.0,62,0.00,,,0.07,,2013-04-25 15:02:00,
2013-04-25 11:11:00,44.0,32.0,30.26,WNW,298,9.0,17.0,62,0.00,,,0.07,,2013-04-25 15:11:00,
2013-04-25 11:21:00,44.0,31.0,30.27,WSW,248,8.0,18.0,61,0.00,,,0.07,,2013-04-25 15:21:00,
2013-04-25 11:33:00,45.0,32.0,30.26,WNW,287,8.0,15.0,61,0.00,,,0.07,,2013-04-25 15:33:00,
2013-04-25 11:42:00,45.0,32.0,30.26,WNW,287,8.0,15.0,61,0.00,,,0.07,,2013-04-25 15:42:00,
2013-04-25 11:53:00,46.0,32.0,30.26,West,264,5.0,16.0,59,0.00,,,0.07,,2013-04-25 15:53:00,
2013-04-25 12:02:00,46.0,32.0,30.27,West,279,10.0,17.0,57,0.00,,,0.07,,2013-04-25 16:02:00,
2013-04-25 12:13:00,46.0,32.0,30.27,West,279,10.0,17.0,57,0.00,,,0.07,,2013-04-25 16:13:00,
2013-04-25 12:24:00,47.0,33.0,30.27,WNW,302,5.0,18.0,57,0.00,,,0.07,,2013-04-25 16:24:00,
2013-04-25 12:33:00,47.0,33.0,30.27,WNW,290,7.0,16.0,57,0.00,,,0.07,,2013-04-25 16:33:00,
2013-04-25 12:43:00,47.0,33.0,30.27,WNW,290,7.0,16.0,57,0.00,,,0.07,,2013-04-25 16:43:00,
2013-04-25 12:53:00,47.0,32.0,30.27,NNW,346,8.0,15.0,56,0.00,,,0.07,,2013-04-25 16:53:00,
2013-04-25 13:02:00,49.0,32.0,30.26,NW,325,8.0,14.0,51,0.00,,,0.07,,2013-04-25 17:02:00,
2013-04-25 13:11:00,49.0,32.0,30.26,NW,325,8.0,14.0,51,0.00,,,0.07,,2013-04-25 17:11:00,
2013-04-25 13:22:00,49.0,32.0,30.25,WSW,257,7.0,14.0,52,0.00,,,0.07,,2013-04-25 17:22:00,
2013-04-25 13:32:00,49.0,31.0,30.25,WNW,294,7.0,16.0,50,0.00,,,0.07,,2013-04-25 17:32:00,
2013-04-25 13:42:00,49.0,31.0,30.25,WNW,294,7.0,16.0,50,0.00,,,0.07,,2013-04-25 17:42:00,
2013-04-25 13:53:00,50.0,31.0,30.24,WNW,283,7.0,14.0,48,0.00,,,0.07,,2013-04-25 17:53:00,
2013-04-25 14:01:00,51.0,31.0,30.25,NNW,336,8.0,17.0,47,0.00,,,0.07,,2013-04-25 18:01:00,
2013-04-25 14:11:00,51.0,31.0,30.25,NNW,336,8.0,17.0,47,0.00,,,0.07,,2013-04-25 18:11:00,
2013-04-25 14:22:00,52.0,32.0,30.24,NNW,340,4.0,12.0,47,0.00,,,0.07,,2013-04-25 18:22:00,
2013-04-25 14:32:00,52.0,31.0,30.24,WNW,298,7.0,14.0,45,0.00,,,0.07,,2013-04-25 18:32:00,
2013-04-25 14:43:00,52.0,31.0,30.24,WNW,298,7.0,14.0,45,0.00,,,0.07,,2013-04-25 18:43:00,
2013-04-25 14:53:00,53.0,32.0,30.24,NNW,330,5.0,12.0,44,0.00,,,0.07,,2013-04-25 18:53:00,
2013-04-25 15:02:00,53.0,32.0,30.23,SW,234,5.0,12.0,45,0.00,,,0.07,,2013-04-25 19:02:00,
2013-04-25 15:12:00,53.0,32.0,30.23,SW,234,5.0,12.0,45,0.00,,,0.07,,2013-04-25 19:12:00,
2013-04-25 15:21:00,55.0,33.0,30.24,West,270,4.0,12.0,43,0.00,,,0.07,,2013-04-25 19:21:00,
2013-04-25 15:32:00,54.0,32.0,30.23,WNW,302,5.0,12.0,43,0.00,,,0.07,,2013-04-25 19:32:00,
2013-04-25 15:42:00,54.0,32.0,30.23,WNW,302,5.0,12.0,43,0.00,,,0.07,,2013-04-25 19:42:00,
2013-04-25 15:52:00,55.0,33.0,30.22,WSW,248,6.0,11.0,44,0.00,,,0.07,,2013-04-25 19:52:00,
2013-04-25 16:02:00,55.0,32.0,30.22,NW,304,5.0,12.0,41,0.00,,,0.07,,2013-04-25 20:02:00,
2013-04-25 16:11:00,55.0,32.0,30.22,NW,304,5.0,12.0,41,0.00,,,0.07,,2013-04-25 20:11:00,
2013-04-25 16:22:00,56.0,33.0,30.22,WNW,287,6.0,11.0,41,0.00,,,0.07,,2013-04-25 20:22:00,
2013-04-25 16:32:00,56.0,32.0,30.22,West,268,5.0,12.0,40,0.00,,,0.07,,2013-04-25 20:32:00,
2013-04-25 16:42:00,56.0,32.0,30.22,West,268,5.0,12.0,40,0.00,,,0.07,,2013-04-25 20:42:00,
2013-04-25 16:52:00,55.0,32.0,30.22,WNW,298,4.0,9.0,41,0.00,,,0.07,,2013-04-25 20:52:00,
2013-04-25 17:01:00,56.0,31.0,30.22,WNW,289,3.0,10.0,39,0.00,,,0.07,,2013-04-25 21:01:00,
2013-04-25 17:11:00,56.0,31.0,30.22,WNW,289,3.0,10.0,39,0.00,,,0.07,,2013-04-25 21:11:00,
2013-04-25 17:22:00,57.0,32.0,30.22,West,260,4.0,8.0,39,0.00,,,0.07,,2013-04-25 21:22:00,
2013-04-25 17:33:00,57.0,32.0,30.22,WNW,299,1.0,7.0,38,0.00,,,0.07,,2013-04-25 21:33:00,
2013-04-25 17:42:00,57.0,32.0,30.22,WNW,299,1.0,7.0,38,0.00,,,0.07,,2013-04-25 21:42:00,
2013-04-25 17:53:00,56.0,31.0,30.22,NW,311,0.0,5.0,38,0.00,,,0.07,,2013-04-25 21:53:00,
2013-04-25 18:03:00,57.0,32.0,30.22,West,269,4.0,8.0,38,0.00,,,0.07,,2013-04-25 22:03:00,
2013-04-25 18:12:00,57.0,32.0,30.22,West,269,4.0,8.0,38,0.00,,,0.07,,2013-04-25 22:12:00,
2013-04-25 18:22:00,57.0,30.0,30.22,WNW,301,3.0,8.0,36,0.00,,,0.07,,2013-04-25 22:22:00,
2013-04-25 18:33:00,57.0,31.0,30.22,NW,306,2.0,6.0,37,0.00,,,0.07,,2013-04-25 22:33:00,
2013-04-25 18:42:00,57.0,31.0,30.22,NW,306,2.0,6.0,37,0.00,,,0.07,,2013-04-25 22:42:00,
2013-04-25 18:53:00,57.0,31.0,30.23,West,270,3.0,8.0,37,0.00,,,0.07,,2013-04-25 22:53:00,
2013-04-25 19:02:00,57.0,30.0,30.23,West,270,1.0,5.0,36,0.00,,,0.07,,2013-04-25 23:02:00,
2013-04-25 19:12:00,57.0,30.0,30.23,West,270,1.0,5.0,36,0.00,,,0.07,,2013-04-25 23:12:00,
2013-04-25 19:22:00,57.0,30.0,30.23,West,270,3.0,5.0,36,0.00,,,0.07,,2013-04-25 23:22:00,
2013-04-25 19:32:00,57.0,30.0,30.23,West,275,3.0,6.0,36,0.00,,,0.07,,2013-04-25 23:32:00,
2013-04-25 19:42:00,57.0,30.0,30.23,West,275,3.0,6.0,36,0.00,,,0.07,,2013-04-25 23:42:00,
2013-04-25 19:52:00,56.0,31.0,30.24,WNW,298,3.0,7.0,39,0.00,,,0.07,,2013-04-25 23:52:00,
2013-04-25 20:01:00,55.0,31.0,30.24,WNW,298,1.0,5.0,39,0.00,,,0.07,,2013-04-26 00:01:00,
2013-04-25 20:11:00,55.0,31.0,30.24,WNW,298,1.0,5.0,39,0.00,,,0.07,,2013-04-26 00:11:00,
2013-04-25 20:21:00,55.0,31.0,30.25,WNW,298,1.0,2.0,40,0.00,,,0.07,,2013-04-26 00:21:00,
2013-04-25 20:32:00,54.0,31.0,30.25,WNW,298,0.0,1.0,41,0.00,,,0.07,,2013-04-26 00:32:00,
2013-04-25 20:42:00,54.0,31.0,30.25,WNW,298,0.0,1.0,41,0.00,,,0.07,,2013-04-26 00:42:00,
2013-04-25 20:52:00,54.0,32.0,30.25,WNW,298,0.0,2.0,43,0.00,,,0.07,,2013-04-26 00:52:00,
2013-04-25 21:01:00,53.0,31.0,30.26,WNW,298,0.0,2.0,43,0.00,,,0.07,,2013-04-26 01:01:00,
2013-04-25 21:11:00,53.0,31.0,30.26,WNW,298,0.0,2.0,43,0.00,,,0.07,,2013-04-26 01:11:00,
2013-04-25 21:21:00,52.0,32.0,30.27,WNW,298,1.0,3.0,46,0.00,,,0.07,,2013-04-26 01:21:00,
2013-04-25 21:32:00,52.0,32.0,30.27,WNW,298,0.0,2.0,46,0.00,,,0.07,,2013-04-26 01:32:00,
2013-04-25 21:42:00,52.0,32.0,30.27,WNW,298,0.0,2.0,46,0.00,,,0.07,,2013-04-26 01:42:00,
2013-04-25 21:52:00,51.0,33.0,30.29,WNW,298,1.0,4.0,50,0.00,,,0.07,,2013-04-26 01:52:00,
2013-04-25 22:02:00,51.0,34.0,30.29,WNW,298,0.0,2.0,51,0.00,,,0.07,,2013-04-26 02:02:00,
2013-04-25 22:12:00,51.0,34.0,30.29,WNW,298,0.0,2.0,51,0.00,,,0.07,,2013-04-26 02:12:00,
2013-04-25 22:21:00,50.0,34.0,30.29,WNW,298,0.0,1.0,55,0.00,,,0.07,,2013-04-26 02:21:00,
2013-04-25 22:32:00,49.0,34.0,30.29,WNW,298,0.0,0.0,55,0.00,,,0.07,,2013-04-26 02:32:00,
2013-04-25 22:42:00,49.0,34.0,30.29,WNW,298,0.0,0.0,55,0.00,,,0.07,,2013-04-26 02:42:00,
2013-04-25 22:52:00,48.0,34.0,30.30,WNW,298,0.0,1.0,58,0.00,,,0.07,,2013-04-26 02:52:00,
2013-04-25 23:01:00,47.0,33.0,30.30,WNW,298,0.0,2.0,58,0.00,,,0.07,,2013-04-26 03:01:00,
2013-04-25 23:11:00,47.0,33.0,30.30,WNW,298,0.0,2.0,58,0.00,,,0.07,,2013-04-26 03:11:00,
2013-04-25 23:22:00,46.0,33.0,30.30,WNW,298,0.0,0.0,61,0.00,,,0.07,,2013-04-26 03:22:00,
2013-04-25 23:33:00,46.0,34.0,30.29,WNW,298,0.0,0.0,62,0.00,,,0.07,,2013-04-26 03:33:00,
2013-04-25 23:43:00,46.0,34.0,30.29,WNW,298,0.0,0.0,62,0.00,,,0.07,,2013-04-26 03:43:00,
2013-04-25 23:53:00,45.0,34.0,30.30,WNW,298,0.0,0.0,65,0.00,,,0.07,,2013-04-26 03:53:00,